Weather at Kornos Highway Strip

Public forecast

Using degrees Celsius for public forecast. Weather courtesy of forecast.io.

Closest aviation weather report (METAR) to Kornos Highway Strip

Closest report is Larnaca International Airport, 11.1 nm (20.5 km) E.

2022/12/04 06:00 (retrieved 17 minutes ago)

LCLK 040600Z 29005KT 9999 FEW025 16/12 Q1020 NOSIG

Closest aviation forecast (TAF) to Kornos Highway Strip

Closest forecast is Larnaca International Airport, 11.1 nm (20.5 km) E.

2022/12/04 06:30 (retrieved 0 seconds ago)

TAF LCLK 040530Z 0406/0506 35007KT 9999 FEW035 BECMG 0408/0411 08010KT BECMG 0416/0418 31006KT